Time;durP1;ratioP1;P1;durP2;ratioP2;P2;SDS_P1;SDS_P2;PMS_P1;PMS_P2;Temp;Humidity;BMP_temperature;BMP_pressure;BME280_temperature;BME280_humidity;BME280_pressure;Samples;Min_cycle;Max_cycle;Signal;HPM_P1;HPM_P2
2023/07/09 04:01:38;;;;;;;4.63;4.33;;;17.50;97.30;;;;;;5485992;23;20502;-84
2023/07/09 04:04:04;;;;;;;3.40;3.17;;;17.50;97.30;;;;;;5008903;28;20443;-83
2023/07/09 04:06:29;;;;;;;2.90;2.60;;;17.50;97.30;;;;;;5009705;28;20192;-83
2023/07/09 04:08:55;;;;;;;3.87;3.20;;;17.50;97.30;;;;;;5010009;28;20306;-84
2023/07/09 04:11:20;;;;;;;6.70;3.77;;;17.50;97.30;;;;;;5004683;28;20197;-84
2023/07/09 04:13:46;;;;;;;3.93;3.53;;;17.50;97.30;;;;;;5007598;28;20667;-86
2023/07/09 04:16:11;;;;;;;4.60;4.30;;;17.50;97.30;;;;;;5001044;28;20174;-83
2023/07/09 04:18:37;;;;;;;4.67;4.37;;;17.50;97.30;;;;;;5006014;28;20808;-85
2023/07/09 04:21:03;;;;;;;3.00;2.80;;;17.60;97.30;;;;;;5009282;28;20323;-86
2023/07/09 04:23:29;;;;;;;5.83;3.30;;;17.60;97.30;;;;;;5007051;28;20184;-86
2023/07/09 04:25:54;;;;;;;4.30;3.40;;;17.70;97.30;;;;;;5013114;28;20921;-86
2023/07/09 04:28:20;;;;;;;2.93;2.73;;;17.70;97.30;;;;;;5010744;28;21028;-86
2023/07/09 04:30:50;;;;;;;4.90;3.23;;;17.80;97.30;;;;;;5000167;28;20198;-85
2023/07/09 04:33:20;;;;;;;3.43;3.30;;;17.80;97.30;;;;;;5008452;28;20188;-83
2023/07/09 04:35:46;;;;;;;5.47;3.03;;;17.80;97.30;;;;;;4998770;28;20421;-83
2023/07/09 04:38:13;;;;;;;5.80;3.80;;;17.90;97.30;;;;;;5010543;28;20412;-85
2023/07/09 04:40:39;;;;;;;7.13;3.20;;;17.90;97.30;;;;;;5005014;28;20491;-86
2023/07/09 04:43:04;;;;;;;5.90;3.73;;;18.00;97.30;;;;;;4996235;28;20834;-87
2023/07/09 04:45:30;;;;;;;5.90;4.27;;;18.00;97.30;;;;;;4996743;28;20192;-86
2023/07/09 04:47:55;;;;;;;5.83;3.17;;;18.10;97.30;;;;;;5008082;28;20199;-85
2023/07/09 04:50:21;;;;;;;3.77;3.33;;;18.10;97.30;;;;;;5011566;28;20193;-85
2023/07/09 04:52:47;;;;;;;3.80;3.10;;;18.20;97.30;;;;;;5005395;28;20192;-86
2023/07/09 04:55:12;;;;;;;3.43;3.23;;;18.30;97.30;;;;;;5002117;28;20436;-84
2023/07/09 04:57:39;;;;;;;5.30;3.90;;;18.30;97.30;;;;;;4999724;28;20181;-85
2023/07/09 05:00:06;;;;;;;4.30;2.97;;;18.40;97.30;;;;;;5003849;28;20216;-86
2023/07/09 05:02:32;;;;;;;3.73;2.80;;;18.40;97.30;;;;;;4977798;28;1018020;-86
2023/07/09 05:04:57;;;;;;;5.60;3.77;;;18.50;97.30;;;;;;5005178;28;20210;-83
2023/07/09 05:07:23;;;;;;;6.30;3.70;;;18.60;97.30;;;;;;5009903;28;20576;-85
2023/07/09 05:09:48;;;;;;;8.73;3.67;;;18.60;97.30;;;;;;4999833;28;20188;-86
2023/07/09 05:12:14;;;;;;;4.83;4.07;;;18.70;97.30;;;;;;5010923;28;20201;-86
2023/07/09 05:14:39;;;;;;;4.30;3.50;;;18.70;97.30;;;;;;5001810;28;20946;-86
2023/07/09 05:19:33;;;;;;;3.00;2.80;;;18.90;97.30;;;;;;4968846;28;20222;-75
2023/07/09 05:21:59;;;;;;;3.57;3.37;;;18.90;97.30;;;;;;4955664;28;20993;-75
2023/07/09 05:24:24;;;;;;;4.83;4.40;;;19.00;97.30;;;;;;4942268;28;20190;-77
2023/07/09 05:26:50;;;;;;;8.80;5.30;;;19.00;97.30;;;;;;4948746;28;20203;-76
2023/07/09 05:29:15;;;;;;;4.23;3.33;;;19.10;97.30;;;;;;4943304;28;20171;-78
2023/07/09 05:31:41;;;;;;;6.03;4.27;;;19.10;97.30;;;;;;4943996;28;20690;-76
2023/07/09 05:34:08;;;;;;;3.20;3.00;;;19.20;97.20;;;;;;4951264;28;20663;-75
2023/07/09 05:36:34;;;;;;;3.43;2.77;;;19.20;96.90;;;;;;4939854;28;20923;-76
2023/07/09 05:39:00;;;;;;;4.23;3.60;;;19.30;96.90;;;;;;4942709;28;20482;-78
2023/07/09 05:41:25;;;;;;;4.03;3.03;;;19.30;96.80;;;;;;4943556;28;20447;-76
2023/07/09 05:43:52;;;;;;;2.50;2.30;;;19.40;96.60;;;;;;4951869;28;20194;-78
2023/07/09 05:46:19;;;;;;;5.17;2.90;;;19.40;96.20;;;;;;4944809;28;20269;-75
2023/07/09 05:48:44;;;;;;;2.27;2.13;;;19.50;95.70;;;;;;4945402;28;20415;-76
2023/07/09 05:51:10;;;;;;;5.07;4.00;;;19.60;95.70;;;;;;4944314;28;20539;-76
2023/07/09 05:53:36;;;;;;;4.43;3.10;;;19.70;95.60;;;;;;4952491;28;20579;-76
2023/07/09 05:56:01;;;;;;;4.43;3.70;;;19.70;95.40;;;;;;4951788;28;20547;-76
2023/07/09 05:58:27;;;;;;;2.70;2.50;;;19.80;95.40;;;;;;4936655;28;20867;-75
2023/07/09 06:00:53;;;;;;;5.87;4.03;;;19.80;95.20;;;;;;4951013;28;20207;-75
2023/07/09 06:03:21;;;;;;;2.53;2.33;;;19.90;95.00;;;;;;4950578;28;20674;-75
2023/07/09 06:05:49;;;;;;;3.03;2.83;;;20.00;94.90;;;;;;4944958;28;20435;-76
2023/07/09 06:08:15;;;;;;;3.20;3.00;;;20.00;94.90;;;;;;4952696;28;20462;-76
2023/07/09 06:10:57;;;;;;;3.20;2.60;;;20.10;94.60;;;;;;4951800;28;20482;-76
2023/07/09 06:13:23;;;;;;;6.83;4.03;;;20.20;94.60;;;;;;4951763;28;20521;-79
2023/07/09 06:15:51;;;;;;;14.00;3.43;;;20.30;94.50;;;;;;4951310;28;20427;-77
2023/07/09 06:18:16;;;;;;;2.40;2.23;;;20.40;94.60;;;;;;4952595;28;20470;-79
2023/07/09 06:20:48;;;;;;;7.00;4.07;;;20.50;93.90;;;;;;4949964;28;20454;-77
2023/07/09 06:23:14;;;;;;;5.43;3.83;;;20.60;93.80;;;;;;4934992;28;20242;-76
2023/07/09 06:25:39;;;;;;;4.13;3.23;;;20.70;93.80;;;;;;4951158;28;20415;-79
2023/07/09 06:28:05;;;;;;;4.53;2.97;;;20.80;93.70;;;;;;4949445;28;20331;-76
2023/07/09 06:30:30;;;;;;;6.83;3.40;;;20.90;93.60;;;;;;4949977;28;20255;-80
2023/07/09 06:32:56;;;;;;;2.90;2.70;;;21.00;93.30;;;;;;4950927;28;20452;-75
2023/07/09 06:35:21;;;;;;;3.63;3.43;;;21.10;92.90;;;;;;4947820;28;20183;-77
2023/07/09 06:37:47;;;;;;;6.10;3.80;;;21.20;92.60;;;;;;4952137;28;20183;-77
2023/07/09 06:40:12;;;;;;;3.30;3.13;;;21.30;92.10;;;;;;4953125;28;20702;-77
2023/07/09 06:42:39;;;;;;;3.63;3.43;;;21.50;91.90;;;;;;4951116;28;20238;-77
2023/07/09 06:45:05;;;;;;;5.07;2.97;;;21.60;91.90;;;;;;4958739;28;20289;-80
2023/07/09 06:47:31;;;;;;;5.10;3.83;;;21.70;92.20;;;;;;4952847;28;20430;-77
2023/07/09 06:49:56;;;;;;;3.47;2.10;;;21.80;91.50;;;;;;4950419;28;20437;-77
2023/07/09 06:52:23;;;;;;;5.40;2.67;;;21.90;91.20;;;;;;4943241;28;20552;-78
2023/07/09 06:54:49;;;;;;;2.70;2.50;;;22.00;91.10;;;;;;4951273;28;20187;-80
2023/07/09 06:57:14;;;;;;;3.03;2.83;;;22.10;91.00;;;;;;4949252;28;20464;-77
2023/07/09 06:59:40;;;;;;;3.60;2.73;;;22.30;91.10;;;;;;4931387;28;20211;-80
2023/07/09 07:02:06;;;;;;;11.10;5.10;;;22.40;91.00;;;;;;4939441;28;20291;-78
2023/07/09 07:04:33;;;;;;;4.07;3.10;;;22.50;90.80;;;;;;4950337;28;20179;-80
2023/07/09 07:06:58;;;;;;;3.63;3.40;;;22.60;90.10;;;;;;4951127;28;20191;-78
2023/07/09 07:09:24;;;;;;;5.90;3.57;;;22.70;89.70;;;;;;4940729;28;20423;-77
2023/07/09 07:11:50;;;;;;;3.63;3.13;;;22.80;89.50;;;;;;4943946;28;20401;-78
2023/07/09 07:14:15;;;;;;;3.10;2.90;;;22.90;89.60;;;;;;4951897;28;20191;-78
2023/07/09 07:16:41;;;;;;;4.17;2.20;;;23.00;89.80;;;;;;4950453;28;20431;-78
2023/07/09 07:19:06;;;;;;;5.53;3.07;;;23.10;89.80;;;;;;4944046;28;20258;-79
2023/07/09 07:21:32;;;;;;;6.10;3.13;;;23.20;89.40;;;;;;4950720;28;20202;-79
2023/07/09 07:23:58;;;;;;;12.57;2.73;;;23.40;88.50;;;;;;4943878;28;20191;-79
2023/07/09 07:26:23;;;;;;;3.57;3.30;;;23.50;87.40;;;;;;4948710;28;20187;-79
2023/07/09 07:28:50;;;;;;;5.63;4.13;;;23.60;86.60;;;;;;4945563;28;20191;-79
2023/07/09 07:31:15;;;;;;;4.30;3.63;;;23.70;86.20;;;;;;4951080;28;20219;-80
2023/07/09 07:33:44;;;;;;;3.47;3.27;;;23.80;86.70;;;;;;4951826;28;20423;-79
2023/07/09 07:36:10;;;;;;;4.50;2.83;;;23.90;85.70;;;;;;4952045;28;20175;-79
2023/07/09 07:38:35;;;;;;;5.43;3.70;;;24.00;85.70;;;;;;4950141;28;20561;-80
2023/07/09 07:41:01;;;;;;;5.40;4.20;;;24.10;85.90;;;;;;4952226;28;20199;-80
2023/07/09 07:43:27;;;;;;;5.57;4.00;;;24.30;85.20;;;;;;4951897;28;20175;-81
2023/07/09 07:45:53;;;;;;;4.57;2.90;;;24.40;85.20;;;;;;4951956;28;20425;-80
2023/07/09 07:48:19;;;;;;;3.93;3.37;;;24.60;84.70;;;;;;4949648;28;20175;-81
2023/07/09 07:50:47;;;;;;;4.47;3.60;;;24.80;84.40;;;;;;4946459;28;20264;-81
2023/07/09 07:53:15;;;;;;;5.53;2.50;;;24.90;83.50;;;;;;4957249;28;20175;-80
2023/07/09 07:55:40;;;;;;;3.70;2.77;;;25.00;82.60;;;;;;4951067;28;20938;-81
2023/07/09 07:58:07;;;;;;;5.20;3.03;;;25.10;82.20;;;;;;4943084;28;20433;-83
2023/07/09 08:00:33;;;;;;;6.70;3.30;;;25.20;82.90;;;;;;4950792;28;20620;-81
2023/07/09 08:02:59;;;;;;;3.60;3.03;;;25.30;82.70;;;;;;4945611;28;20419;-82
2023/07/09 08:05:25;;;;;;;2.97;2.77;;;25.50;82.20;;;;;;4933862;28;20510;-83
2023/07/09 08:07:51;;;;;;;8.70;3.70;;;25.60;82.10;;;;;;4951235;28;20434;-81
2023/07/09 08:10:16;;;;;;;3.23;2.70;;;25.80;81.90;;;;;;4966342;28;20178;-81
2023/07/09 08:12:43;;;;;;;3.17;2.97;;;25.90;80.80;;;;;;4945392;28;20190;-81
2023/07/09 08:15:09;;;;;;;2.87;2.67;;;26.10;79.90;;;;;;4937156;28;20258;-82
2023/07/09 08:17:35;;;;;;;5.43;2.90;;;26.20;79.10;;;;;;4949801;28;20594;-82
2023/07/09 08:20:00;;;;;;;2.80;2.60;;;26.30;79.00;;;;;;4950296;28;20242;-81
2023/07/09 08:22:26;;;;;;;8.83;3.70;;;26.40;78.90;;;;;;4946958;28;20206;-81
2023/07/09 08:24:52;;;;;;;4.60;3.40;;;26.50;78.60;;;;;;4949454;28;20175;-81
2023/07/09 08:27:20;;;;;;;7.40;3.77;;;26.70;79.00;;;;;;4939130;28;20274;-81
2023/07/09 08:29:46;;;;;;;8.80;4.43;;;26.90;78.10;;;;;;4948290;28;20187;-82
2023/07/09 08:32:12;;;;;;;4.00;2.80;;;27.00;77.70;;;;;;4943156;28;20506;-84
2023/07/09 08:34:39;;;;;;;2.63;2.47;;;27.10;77.60;;;;;;4946633;28;20455;-82
2023/07/09 08:37:06;;;;;;;11.90;2.87;;;27.20;77.00;;;;;;4942064;28;20866;-81
2023/07/09 08:39:31;;;;;;;2.80;2.50;;;27.40;76.30;;;;;;4932151;28;20522;-84
2023/07/09 08:42:11;;;;;;;2.47;2.27;;;27.50;75.60;;;;;;4942474;28;20470;-82
2023/07/09 08:44:45;;;;;;;3.57;3.03;;;27.60;74.90;;;;;;4938857;28;20172;-83
2023/07/09 08:47:26;;;;;;;3.13;2.80;;;27.60;73.10;;;;;;4944294;28;20453;-81
2023/07/09 08:50:16;;;;;;;3.90;2.37;;;27.70;73.70;;;;;;4936104;28;20445;-83
2023/07/09 08:52:44;;;;;;;1.50;1.50;;;27.90;73.60;;;;;;4943207;28;21136;-82
2023/07/09 08:55:15;;;;;;;6.20;2.90;;;28.00;73.30;;;;;;4943706;28;20721;-84
2023/07/09 08:57:45;;;;;;;2.77;2.40;;;28.10;73.60;;;;;;4946408;28;20419;-82
2023/07/09 09:00:22;;;;;;;3.77;3.33;;;28.30;73.30;;;;;;4954224;28;20509;-84
2023/07/09 09:03:10;;;;;;;5.17;3.00;;;28.40;72.40;;;;;;4938610;28;21250;-83
2023/07/09 09:05:41;;;;;;;3.00;2.60;;;28.60;72.40;;;;;;4940343;28;20419;-84
2023/07/09 09:08:43;;;;;;;5.50;3.70;;;28.70;72.80;;;;;;4943726;28;20425;-83
2023/07/09 09:11:23;;;;;;;3.27;2.53;;;28.80;72.50;;;;;;4949625;28;20457;-82
2023/07/09 09:13:53;;;;;;;3.23;3.10;;;29.00;71.50;;;;;;4941755;28;20461;-83
2023/07/09 09:16:30;;;;;;;2.40;2.23;;;29.10;70.90;;;;;;4945758;28;20418;-83
2023/07/09 09:18:58;;;;;;;2.63;1.90;;;29.10;71.50;;;;;;4949591;28;20556;-83
2023/07/09 09:21:30;;;;;;;4.10;2.50;;;29.20;71.00;;;;;;4948646;28;20454;-84
2023/07/09 09:23:59;;;;;;;12.73;2.27;;;29.30;71.10;;;;;;4951854;28;20576;-84
2023/07/09 09:26:24;;;;;;;20.83;3.00;;;29.30;70.30;;;;;;4949583;28;20497;-84
2023/07/09 09:28:51;;;;;;;3.30;2.03;;;29.40;70.10;;;;;;4952714;28;21022;-84
2023/07/09 09:31:17;;;;;;;2.47;2.30;;;29.50;70.30;;;;;;4945745;28;20852;-85
2023/07/09 09:33:45;;;;;;;3.97;2.50;;;29.60;69.60;;;;;;4949266;28;20427;-85
2023/07/09 09:36:17;;;;;;;2.80;2.60;;;29.70;69.20;;;;;;4942391;28;20442;-85
2023/07/09 09:38:43;;;;;;;4.63;2.90;;;29.80;69.30;;;;;;4949906;28;20684;-86
2023/07/09 09:41:21;;;;;;;2.13;1.90;;;29.90;69.40;;;;;;4942623;28;20538;-85
2023/07/09 09:43:49;;;;;;;2.70;2.50;;;30.00;69.00;;;;;;4936997;28;20514;-84
2023/07/09 09:46:29;;;;;;;2.73;2.50;;;30.10;66.20;;;;;;4940817;28;20454;-85
2023/07/09 09:48:59;;;;;;;2.97;2.77;;;30.10;66.80;;;;;;4937692;28;20444;-85
2023/07/09 09:51:25;;;;;;;2.77;2.10;;;30.20;66.80;;;;;;4950548;28;20975;-84
2023/07/09 09:53:58;;;;;;;3.13;2.53;;;30.20;67.20;;;;;;4944544;28;20431;-87
2023/07/09 09:56:37;;;;;;;2.10;2.00;;;30.30;67.30;;;;;;4951018;28;20738;-85
2023/07/09 09:59:05;;;;;;;3.57;1.67;;;30.40;67.20;;;;;;4944344;28;21049;-85
2023/07/09 10:01:34;;;;;;;3.93;2.83;;;30.40;66.70;;;;;;4946015;28;20451;-86
2023/07/09 10:04:02;;;;;;;2.13;1.97;;;30.50;66.60;;;;;;4943354;28;20919;-85
2023/07/09 10:06:40;;;;;;;3.00;2.83;;;30.60;65.70;;;;;;4943176;28;20789;-86
2023/07/09 10:09:39;;;;;;;2.33;2.03;;;30.70;66.80;;;;;;4933234;29;20438;-85
2023/07/09 10:12:32;;;;;;;4.03;2.47;;;30.80;66.90;;;;;;4951597;28;20493;-86
2023/07/09 10:15:23;;;;;;;2.07;1.93;;;31.00;67.40;;;;;;4951804;28;20476;-86
2023/07/09 10:18:28;;;;;;;2.10;1.73;;;31.10;66.30;;;;;;4947878;28;20471;-86
2023/07/09 10:21:33;;;;;;;3.33;3.13;;;31.20;66.20;;;;;;4946936;28;20863;-86
2023/07/09 10:24:07;;;;;;;3.20;2.43;;;31.40;65.70;;;;;;4936426;28;20428;-86
2023/07/09 10:26:46;;;;;;;2.23;2.03;;;31.40;64.40;;;;;;4944638;28;20707;-85
2023/07/09 10:29:32;;;;;;;2.07;1.97;;;31.50;63.60;;;;;;4938190;28;20458;-87
2023/07/09 10:32:04;;;;;;;2.37;2.17;;;31.50;62.50;;;;;;4945189;28;20440;-84
2023/07/09 10:35:09;;;;;;;2.70;2.30;;;31.60;62.30;;;;;;4942820;28;20415;-84
2023/07/09 10:37:46;;;;;;;3.70;2.27;;;31.60;63.00;;;;;;4942294;28;20427;-84
2023/07/09 10:40:17;;;;;;;3.90;1.90;;;31.70;62.60;;;;;;4944817;28;20466;-83
2023/07/09 10:42:50;;;;;;;7.10;3.17;;;31.80;63.70;;;;;;4939701;28;20484;-83
2023/07/09 10:45:26;;;;;;;2.40;1.80;;;31.90;63.20;;;;;;4939346;28;20511;-82
2023/07/09 10:47:59;;;;;;;2.00;1.87;;;31.90;62.90;;;;;;4943707;28;20449;-83
2023/07/09 10:50:28;;;;;;;4.83;2.67;;;32.00;63.80;;;;;;4944202;28;20439;-84
2023/07/09 10:53:05;;;;;;;4.30;2.50;;;32.10;63.40;;;;;;4944354;28;20422;-84
2023/07/09 10:55:52;;;;;;;6.80;4.23;;;32.20;62.90;;;;;;4932618;28;21011;-85
2023/07/09 10:58:40;;;;;;;2.23;2.03;;;32.30;63.60;;;;;;4942102;28;20442;-82
2023/07/09 11:01:05;;;;;;;3.63;2.63;;;32.30;62.30;;;;;;4951188;28;20451;-82
2023/07/09 11:03:40;;;;;;;5.10;2.63;;;32.40;63.20;;;;;;4950507;28;20438;-81
2023/07/09 11:06:17;;;;;;;2.60;1.73;;;32.50;62.20;;;;;;4951171;28;20178;-82
2023/07/09 11:08:44;;;;;;;2.70;2.57;;;32.60;62.20;;;;;;4939133;28;20511;-82
2023/07/09 11:11:18;;;;;;;2.73;2.53;;;32.60;62.40;;;;;;4939812;28;20459;-83
2023/07/09 11:14:00;;;;;;;2.50;2.20;;;32.70;62.20;;;;;;4936107;28;20430;-83
2023/07/09 11:16:31;;;;;;;3.40;2.47;;;32.80;61.40;;;;;;4938405;28;20545;-82
2023/07/09 11:19:02;;;;;;;3.23;2.10;;;32.80;61.20;;;;;;4925257;29;20491;-81
2023/07/09 11:21:28;;;;;;;4.40;3.03;;;32.90;61.90;;;;;;4939432;28;20451;-83
2023/07/09 11:24:00;;;;;;;4.00;2.10;;;33.00;62.00;;;;;;4943233;28;20429;-82
2023/07/09 11:26:34;;;;;;;8.07;2.93;;;33.00;61.60;;;;;;4942278;28;20515;-84
2023/07/09 11:29:06;;;;;;;3.87;3.10;;;33.10;62.20;;;;;;4940514;28;20436;-84
2023/07/09 11:31:40;;;;;;;3.30;2.60;;;33.30;62.50;;;;;;4967844;23;20494;-77
2023/07/09 11:34:10;;;;;;;3.80;2.60;;;33.30;61.00;;;;;;4968070;28;20436;-78
2023/07/09 11:36:49;;;;;;;2.80;2.60;;;33.40;61.00;;;;;;4968122;28;20426;-79
2023/07/09 11:39:38;;;;;;;2.53;1.80;;;33.50;60.00;;;;;;4969280;28;20465;-79
2023/07/09 11:42:22;;;;;;;5.20;2.37;;;33.40;59.40;;;;;;4959432;28;20443;-80
2023/07/09 11:44:50;;;;;;;2.60;2.40;;;33.40;60.60;;;;;;4959036;28;20438;-81
2023/07/09 11:47:36;;;;;;;2.13;1.97;;;33.50;61.90;;;;;;4961071;28;20434;-77
2023/07/09 11:50:06;;;;;;;4.87;1.87;;;33.50;60.60;;;;;;4961399;28;20457;-78
2023/07/09 11:52:55;;;;;;;3.40;2.63;;;33.60;60.20;;;;;;4965731;28;20518;-80
2023/07/09 11:55:40;;;;;;;3.20;2.53;;;33.60;60.20;;;;;;4968249;28;20422;-80
2023/07/09 11:58:08;;;;;;;3.40;2.67;;;33.70;61.00;;;;;;4971063;28;20433;-80
2023/07/09 12:00:43;;;;;;;4.23;3.00;;;33.80;62.50;;;;;;4970345;28;20477;-80
2023/07/09 12:03:18;;;;;;;2.63;2.47;;;33.90;62.50;;;;;;4963484;28;20433;-79
2023/07/09 12:05:52;;;;;;;2.80;1.87;;;34.10;62.20;;;;;;4970531;28;20437;-80
2023/07/09 12:08:23;;;;;;;4.47;2.77;;;34.20;61.10;;;;;;4968498;28;20430;-80
2023/07/09 12:10:48;;;;;;;2.33;2.13;;;34.30;61.40;;;;;;4960226;28;20492;-80
2023/07/09 12:13:14;;;;;;;3.00;2.53;;;34.40;60.40;;;;;;4969225;28;20452;-80
2023/07/09 12:15:40;;;;;;;4.63;2.63;;;34.50;59.90;;;;;;4967640;28;20576;-81
2023/07/09 12:18:14;;;;;;;11.63;3.10;;;34.60;59.80;;;;;;4969664;28;20232;-80
2023/07/09 12:20:41;;;;;;;5.17;2.60;;;34.70;60.40;;;;;;4969250;28;20210;-80
2023/07/09 12:23:19;;;;;;;3.80;2.60;;;34.70;61.20;;;;;;4969332;28;20856;-79
2023/07/09 12:25:49;;;;;;;3.80;2.67;;;34.80;60.90;;;;;;4966789;28;20464;-80
2023/07/09 12:28:15;;;;;;;4.80;3.07;;;34.90;60.90;;;;;;4969252;28;20938;-79
2023/07/09 12:30:48;;;;;;;3.20;2.27;;;34.90;60.40;;;;;;4971612;28;20512;-79
2023/07/09 12:33:22;;;;;;;4.33;2.93;;;35.00;59.10;;;;;;4971773;28;20182;-77
2023/07/09 12:35:52;;;;;;;3.00;2.37;;;35.00;58.70;;;;;;4971452;28;21005;-80
2023/07/09 12:38:21;;;;;;;3.40;3.10;;;35.10;59.30;;;;;;4971390;28;20517;-78
2023/07/09 12:40:51;;;;;;;2.80;2.50;;;35.20;59.00;;;;;;4964230;28;20477;-78
2023/07/09 12:43:26;;;;;;;4.07;2.40;;;35.20;59.40;;;;;;4972669;28;20469;-78
2023/07/09 12:45:53;;;;;;;6.20;1.80;;;35.30;60.10;;;;;;4976458;28;20531;-79
2023/07/09 12:48:23;;;;;;;1.90;1.80;;;35.40;60.40;;;;;;4984749;28;20423;-78
2023/07/09 12:50:50;;;;;;;3.47;2.90;;;35.40;59.90;;;;;;4968765;28;20477;-78
2023/07/09 12:53:18;;;;;;;2.07;1.87;;;35.50;60.20;;;;;;4972950;28;20410;-80
2023/07/09 12:55:47;;;;;;;3.73;2.00;;;35.60;60.50;;;;;;4971694;28;20457;-79
2023/07/09 12:58:24;;;;;;;2.13;1.97;;;35.60;60.20;;;;;;4971181;28;20488;-79
2023/07/09 13:00:54;;;;;;;4.83;2.93;;;35.70;59.40;;;;;;4973311;28;20449;-80
2023/07/09 13:03:25;;;;;;;2.00;1.90;;;35.70;59.40;;;;;;4971399;28;20430;-80
2023/07/09 13:05:56;;;;;;;2.67;2.47;;;35.70;59.10;;;;;;4963141;28;20434;-81
2023/07/09 13:08:24;;;;;;;4.00;2.20;;;35.70;59.40;;;;;;4972398;28;20872;-79
2023/07/09 13:10:51;;;;;;;3.47;2.47;;;35.80;60.10;;;;;;4979754;28;20457;-80
2023/07/09 13:13:19;;;;;;;2.73;2.53;;;35.90;58.70;;;;;;4972948;28;20422;-79
2023/07/09 13:15:51;;;;;;;4.63;3.03;;;35.90;59.10;;;;;;4971673;28;20426;-80
2023/07/09 13:18:16;;;;;;;2.40;2.23;;;35.90;58.00;;;;;;4987399;28;20475;-79
2023/07/09 13:20:46;;;;;;;2.33;1.93;;;35.80;58.20;;;;;;4972369;28;20495;-79
2023/07/09 13:23:18;;;;;;;3.53;2.67;;;35.80;58.60;;;;;;4987585;28;20194;-79
2023/07/09 13:25:45;;;;;;;5.53;3.13;;;35.80;58.20;;;;;;4972150;28;20465;-79
2023/07/09 13:28:42;;;;;;;5.17;3.07;;;35.90;58.70;;;;;;4972267;28;20477;-78
2023/07/09 13:31:12;;;;;;;13.33;2.93;;;36.00;58.10;;;;;;4960811;28;20481;-78
2023/07/09 13:33:38;;;;;;;2.30;2.03;;;35.90;57.60;;;;;;4987031;28;20429;-78
2023/07/09 13:36:06;;;;;;;3.73;3.07;;;36.00;57.30;;;;;;4972501;28;20941;-78
2023/07/09 13:38:32;;;;;;;10.47;2.90;;;36.10;57.70;;;;;;4986718;28;20186;-79
2023/07/09 13:41:09;;;;;;;4.87;2.90;;;36.20;57.00;;;;;;4971431;28;20444;-78
2023/07/09 13:43:36;;;;;;;3.03;1.87;;;36.30;56.80;;;;;;4970609;28;20193;-80
2023/07/09 13:46:03;;;;;;;2.30;2.10;;;36.30;56.40;;;;;;4972165;28;20949;-77
2023/07/09 13:48:31;;;;;;;4.40;3.23;;;36.20;55.50;;;;;;4971808;28;20429;-77
2023/07/09 13:50:57;;;;;;;2.47;2.10;;;36.20;55.70;;;;;;4971387;28;20438;-77
2023/07/09 13:53:26;;;;;;;2.90;2.10;;;36.20;56.60;;;;;;4971577;28;20949;-77
2023/07/09 13:55:53;;;;;;;3.50;2.97;;;36.30;55.90;;;;;;4969204;28;20520;-76
2023/07/09 13:58:26;;;;;;;2.40;2.20;;;36.30;55.50;;;;;;4985616;28;20426;-75
2023/07/09 14:01:04;;;;;;;2.00;1.90;;;36.30;55.30;;;;;;4969657;28;21023;-76
2023/07/09 14:03:31;;;;;;;2.50;2.30;;;36.20;55.50;;;;;;4970174;28;20426;-76
2023/07/09 14:05:57;;;;;;;5.70;3.47;;;36.20;55.50;;;;;;4970104;28;20934;-77
2023/07/09 14:08:23;;;;;;;3.27;2.70;;;36.20;55.80;;;;;;4968767;28;20433;-76
2023/07/09 14:10:49;;;;;;;3.40;2.70;;;36.30;55.40;;;;;;4961886;28;20442;-76
2023/07/09 14:13:17;;;;;;;2.97;2.00;;;36.20;55.60;;;;;;4986507;28;20178;-77
2023/07/09 14:15:44;;;;;;;5.60;2.63;;;36.30;55.50;;;;;;4986381;28;20989;-77
2023/07/09 14:18:19;;;;;;;4.63;2.87;;;36.30;54.70;;;;;;4986266;28;20432;-76
2023/07/09 14:20:45;;;;;;;3.10;1.60;;;36.30;54.90;;;;;;4971183;28;20587;-78
2023/07/09 14:23:16;;;;;;;2.83;1.83;;;36.30;54.60;;;;;;4986148;28;20428;-75
2023/07/09 14:25:43;;;;;;;4.97;2.83;;;36.30;55.00;;;;;;4971464;28;20793;-76
2023/07/09 14:28:17;;;;;;;3.60;2.40;;;36.40;55.00;;;;;;4971224;28;20450;-76
2023/07/09 14:30:45;;;;;;;3.83;3.10;;;36.50;55.30;;;;;;4969827;28;20544;-76
2023/07/09 14:33:28;;;;;;;4.20;2.77;;;36.60;55.40;;;;;;4971059;28;20429;-76
2023/07/09 14:35:55;;;;;;;3.47;2.63;;;36.70;56.00;;;;;;4986098;28;20520;-77
2023/07/09 14:38:23;;;;;;;3.50;2.80;;;36.80;56.10;;;;;;4969821;28;20513;-76
2023/07/09 14:40:51;;;;;;;3.60;2.43;;;36.90;55.70;;;;;;4985841;28;20478;-76
2023/07/09 14:43:16;;;;;;;3.07;2.10;;;36.90;55.20;;;;;;4985823;28;20454;-75
2023/07/09 14:45:42;;;;;;;2.90;2.70;;;36.90;55.10;;;;;;4968835;28;20476;-76
2023/07/09 14:48:19;;;;;;;4.77;2.13;;;37.00;55.40;;;;;;4970678;28;20186;-76
2023/07/09 14:50:46;;;;;;;2.40;2.20;;;37.00;55.40;;;;;;4985521;28;20579;-76
2023/07/09 14:53:26;;;;;;;4.27;2.40;;;37.10;56.70;;;;;;4984445;28;20426;-76
2023/07/09 14:55:53;;;;;;;2.23;2.03;;;37.20;57.10;;;;;;4970578;28;20449;-75
2023/07/09 14:58:21;;;;;;;4.57;2.50;;;37.20;56.10;;;;;;4970514;28;20790;-77
2023/07/09 15:00:47;;;;;;;2.83;2.23;;;37.30;55.60;;;;;;4953199;28;20577;-77
2023/07/09 15:03:25;;;;;;;2.53;2.20;;;37.40;56.30;;;;;;4970563;28;20426;-77
2023/07/09 15:05:51;;;;;;;2.20;2.00;;;37.40;56.00;;;;;;4968922;28;20984;-77
2023/07/09 15:08:19;;;;;;;3.17;2.47;;;37.20;56.00;;;;;;4968696;28;20950;-78
2023/07/09 15:10:46;;;;;;;6.77;2.27;;;37.00;55.50;;;;;;4968830;28;20456;-78
2023/07/09 15:13:25;;;;;;;3.93;2.33;;;36.80;57.10;;;;;;4985457;28;20426;-78
2023/07/09 15:15:51;;;;;;;6.13;2.80;;;36.50;56.50;;;;;;4969891;28;20449;-78
2023/07/09 15:18:17;;;;;;;8.93;2.50;;;36.30;58.60;;;;;;4965717;28;20811;-78
2023/07/09 15:20:50;;;;;;;3.20;3.00;;;36.00;58.60;;;;;;4968138;28;20853;-78
2023/07/09 15:23:16;;;;;;;2.60;2.23;;;35.70;57.90;;;;;;4968993;28;20425;-78
2023/07/09 15:25:41;;;;;;;2.47;2.27;;;35.60;59.40;;;;;;4967283;28;20417;-77
2023/07/09 15:28:11;;;;;;;3.53;2.37;;;35.60;61.10;;;;;;4969526;28;20429;-78
2023/07/09 15:30:37;;;;;;;2.90;2.40;;;35.70;58.60;;;;;;4968107;28;20780;-78
2023/07/09 15:33:03;;;;;;;3.00;2.17;;;35.80;58.60;;;;;;4968767;28;20430;-78
2023/07/09 15:35:35;;;;;;;2.87;2.33;;;36.00;58.40;;;;;;4969365;28;20178;-78
2023/07/09 15:38:12;;;;;;;2.70;2.33;;;36.20;58.40;;;;;;4962574;28;20480;-78
2023/07/09 15:40:37;;;;;;;4.30;2.50;;;36.40;58.60;;;;;;4968737;28;21000;-77
2023/07/09 15:43:08;;;;;;;3.73;2.60;;;36.50;59.00;;;;;;4968631;28;20406;-78
2023/07/09 15:45:39;;;;;;;5.53;2.10;;;36.60;58.70;;;;;;4960461;28;20609;-78
2023/07/09 15:48:05;;;;;;;6.80;3.43;;;36.50;58.60;;;;;;4971050;28;20417;-79
2023/07/09 15:50:32;;;;;;;4.77;2.50;;;36.40;58.50;;;;;;4967829;28;20450;-78
2023/07/09 15:52:58;;;;;;;2.70;2.37;;;36.40;59.00;;;;;;4970535;28;20419;-78
2023/07/09 15:55:26;;;;;;;4.03;2.90;;;36.40;58.30;;;;;;4970678;28;20421;-77
2023/07/09 15:57:54;;;;;;;2.93;2.73;;;36.50;58.70;;;;;;4969548;28;20178;-77
2023/07/09 16:00:23;;;;;;;3.10;2.53;;;36.50;58.60;;;;;;4968763;28;20457;-78
2023/07/09 16:02:50;;;;;;;3.87;2.63;;;36.60;59.30;;;;;;4969760;28;20922;-78
2023/07/09 16:05:28;;;;;;;1.90;1.80;;;36.70;57.50;;;;;;4977169;28;20433;-77
2023/07/09 16:07:56;;;;;;;3.33;2.77;;;36.70;57.20;;;;;;4992371;28;20540;-77
2023/07/09 16:10:24;;;;;;;3.30;2.57;;;36.80;58.40;;;;;;4976140;28;20433;-77
2023/07/09 16:12:50;;;;;;;2.77;2.50;;;36.90;57.90;;;;;;4976171;28;20438;-77
2023/07/09 16:15:22;;;;;;;2.23;2.10;;;36.90;57.90;;;;;;4977152;28;20433;-77
2023/07/09 16:17:48;;;;;;;5.63;3.20;;;36.90;57.60;;;;;;4977567;28;20431;-77
2023/07/09 16:20:18;;;;;;;6.90;2.50;;;36.80;58.00;;;;;;4977344;28;20472;-78
2023/07/09 16:22:49;;;;;;;2.63;2.47;;;36.80;58.00;;;;;;4970626;28;20934;-76
2023/07/09 16:25:21;;;;;;;2.40;2.20;;;36.80;58.00;;;;;;4975602;28;20422;-78
2023/07/09 16:27:48;;;;;;;4.80;2.60;;;36.80;58.00;;;;;;4975215;28;20422;-78
2023/07/09 16:30:17;;;;;;;6.00;3.20;;;36.90;58.10;;;;;;4974850;28;20505;-78
2023/07/09 16:32:44;;;;;;;5.20;2.90;;;36.90;58.20;;;;;;4974381;28;20429;-79
2023/07/09 16:35:15;;;;;;;2.23;1.80;;;36.90;57.80;;;;;;4976817;28;20417;-79
2023/07/09 16:37:41;;;;;;;2.80;2.00;;;36.80;57.20;;;;;;4970566;28;20514;-78
2023/07/09 16:40:24;;;;;;;3.23;2.90;;;36.80;57.20;;;;;;4973465;28;20477;-76
2023/07/09 16:42:51;;;;;;;2.20;2.00;;;36.80;57.10;;;;;;4970131;28;20431;-78
2023/07/09 16:45:18;;;;;;;3.60;3.30;;;36.80;58.60;;;;;;4973452;28;20433;-78
2023/07/09 16:47:45;;;;;;;4.60;2.87;;;36.80;60.00;;;;;;4972867;28;20898;-79
2023/07/09 16:50:17;;;;;;;3.27;2.70;;;36.70;59.90;;;;;;4973542;28;20945;-79
2023/07/09 16:52:44;;;;;;;2.73;2.10;;;36.60;59.10;;;;;;4970704;28;20535;-79
2023/07/09 16:55:14;;;;;;;2.23;2.07;;;36.50;58.20;;;;;;4972006;28;20832;-78
2023/07/09 16:57:40;;;;;;;4.40;2.33;;;36.30;59.90;;;;;;4972301;28;20833;-79
2023/07/09 17:00:12;;;;;;;6.80;2.63;;;36.10;62.40;;;;;;4972786;28;21075;-80
2023/07/09 17:02:39;;;;;;;2.50;2.27;;;35.90;63.00;;;;;;4970375;28;20245;-81